Aircraft
UPR1016 PR-BAK B737-800
PABE
Bethel Airport
PABE
Bethel Airport
Pilot:: Edward
Aircraft:: PMDG 737-800 BDSF PMDG House Blended Winglets (N738BF | 2022)
Alternate: PABE
Network: ivao
FLIGHT DETAILS
Distance: 0nm Duration 00h 00m
Cruise Speed: Flight Level: 36000
Validation: Validated Type Charter
Flight Fuel
ZFW: 53721
Block Fuel/Initial FOB: 10871
Flight Fuel: 2538
Cargo
Passengers: 0
Cargo: 18137
ROUTE
ROUTE: DISVE KOKCE AYWAF BET J120 ADK FEMUL GLINE
REMARKS:
DATE
Date: 00-00-00
Departure Time: 2359
Cargo: 18137
FLIGHT DETAILS
Crashed: No
Validator Comments: Validado por Claudenir
Flight Rating: 100
LANDING ANALYSIS
Landing wind: 0º/0 kt
Landing heading:
Landing VS:: 0 ft/min
Landing IAS:: 0 kt
Landing Force G: 0 G
Landing Bank: 0
Landing Pitch: 0
Landing Flaps: 0
Navigation Lights: OFF
Landing Lights: OFF
Beacon Lights: OFF
Strobe Lights: OFF
viserfly

ALTITUDE CHART

viserfly

MAIN EVENTS

DATE EVENT IAS ALTITUDE
2026-08-14 23:41:15 FLYacars version 1.3.5 0 123
2026-08-14 23:41:16 Aircraft boarding in progress 0 123
2026-08-14 23:41:16 Navigation Lights ON 0 123
2026-08-14 23:47:47 Beacon Lights ON 0 123
2026-08-14 23:51:06 Starting Engine 1 0 123
2026-08-14 23:52:07 Starting Engine 2 0 123
2026-08-14 23:53:01 Taxi Lights ON 0 123
2026-08-14 23:53:17 FLAPS 100% 0 123
2026-08-14 23:53:18 FLAPS 75% 0 123
2026-08-14 23:53:18 FLAPS 62% 0 123
2026-08-14 23:53:18 FLAPS 0% 0 123
2026-08-14 23:53:18 FLAPS 62% 0 123
2026-08-14 23:53:18 FLAPS 50% 0 123
2026-08-14 23:53:18 FLAPS 0% 0 123
2026-08-14 23:53:23 FLAPS 50% 0 123
2026-08-14 23:53:24 FLAPS 0% 0 123
2026-08-14 23:53:26 FLAPS 12% 0 123
2026-08-14 23:53:34 FLAPS 25% 0 123
2026-08-14 23:53:38 FLAPS 37% 0 123
2026-08-14 23:53:42 FLAPS 50% 0 123
2026-08-14 23:53:53 FLAPS 62% 0 123
2026-08-14 23:53:53 FLAPS 50% 0 123
2026-08-14 23:53:54 FLAPS 75% 0 123
2026-08-14 23:53:54 FLAPS 50% 0 123
2026-08-14 23:53:57 FLAPS 75% 0 123
2026-08-14 23:53:57 FLAPS 62% 0 123
2026-08-14 23:53:59 FLAPS 75% 0 123
2026-08-14 23:54:55 Aircraft taxiing to runway 4 124
2026-08-14 23:56:48 Landing Lights ON 13 113
2026-08-14 23:56:52 Navigation Lights OFF 13 113
2026-08-14 23:56:54 Navigation Lights ON 13 113
2026-08-14 23:56:54 Strobe Lights ON 13 113
2026-08-14 23:57:10 FLAPS 62% 11 111
2026-08-14 23:57:10 FLAPS 75% 11 111
2026-08-14 23:57:12 FLAPS 62% 10 111
2026-08-14 23:59:06 Detected Take-off roll, HDG 202, IAS 147kt, GS 152kt, G-force 1.1g, Pitch -8.7deg, Bank 0.0deg, Wind 297/01kt, Temp 22°C 147 127
2026-08-14 23:59:07 Airborne 147 127
2026-08-14 23:59:10 Gear UP, IAS 159kt, GS 163kt, ALT 78ft AGL 159 199
2026-08-14 23:59:11 Gear DOWN, IAS 160kt, GS 163kt, ALT 82ft AGL 160 204
2026-08-14 23:59:12 Gear UP, IAS 162kt, GS 165kt, ALT 130ft AGL 162 255
2026-08-14 23:59:21 FLAPS 50% 169kt, ALT 720ft 169 720
2026-08-14 23:59:21 FLAPS 37% 170kt, ALT 742ft 170 742
2026-08-14 23:59:21 FLAPS 62% 170kt, ALT 764ft 170 764
2026-08-14 23:59:22 FLAPS 37% 170kt, ALT 770ft 170 770
2026-08-14 23:59:22 FLAPS 62% 170kt, ALT 784ft 170 784
2026-08-14 23:59:23 FLAPS 50% 170kt, ALT 875ft 170 875
2026-08-14 23:59:27 FLAPS 37% 171kt, ALT 1123ft 171 1123
2026-08-15 00:00:37 FLAPS 25% 223kt, ALT 3656ft 223 3656
2026-08-15 00:00:37 FLAPS 12% 224kt, ALT 3660ft 224 3660
2026-08-15 00:00:38 FLAPS 0% 224kt, ALT 3662ft 224 3662
2026-08-15 00:00:38 FLAPS 37% 224kt, ALT 3670ft 224 3670
2026-08-15 00:00:42 FLAPS 25% 227kt, ALT 3770ft 227 3770
2026-08-15 00:00:46 FLAPS 12% 228kt, ALT 3920ft 228 3920
2026-08-15 00:00:53 FLAPS 0% 226kt, ALT 4174ft 226 4174
2026-08-15 00:04:26 FLAPS 12% 223kt, ALT 3964ft 223 3964
2026-08-15 00:04:26 FLAPS 0% 223kt, ALT 3959ft 223 3959
2026-08-15 00:04:33 FLAPS 12% 226kt, ALT 3782ft 226 3782
2026-08-15 00:07:23 FLAPS 25% 190kt, ALT 1833ft 190 1833
2026-08-15 00:07:23 FLAPS 12% 190kt, ALT 1833ft 190 1833
2026-08-15 00:07:23 FLAPS 25% 190kt, ALT 1834ft 190 1834
2026-08-15 00:07:23 FLAPS 12% 190kt, ALT 1834ft 190 1834
2026-08-15 00:07:26 FLAPS 25% 188kt, ALT 1837ft 188 1837
2026-08-15 00:08:02 FLAPS 37% 183kt, ALT 1850ft 183 1850
2026-08-15 00:08:03 FLAPS 25% 183kt, ALT 1850ft 183 1850
2026-08-15 00:08:04 FLAPS 37% 183kt, ALT 1845ft 183 1845
2026-08-15 00:08:04 FLAPS 25% 183kt, ALT 1844ft 183 1844
2026-08-15 00:08:04 FLAPS 37% 183kt, ALT 1844ft 183 1844
2026-08-15 00:08:04 FLAPS 25% 182kt, ALT 1844ft 182 1844
2026-08-15 00:08:07 FLAPS 37% 183kt, ALT 1834ft 183 1834
2026-08-15 00:17:56 Gear DOWN, IAS 175kt, GS 182kt, ALT 1828ft AGL 175 1833
2026-08-15 00:17:56 Gear UP, IAS 175kt, GS 182kt, ALT 1828ft AGL 175 1832
2026-08-15 00:17:58 FLAPS 50% 175kt, ALT 1827ft 175 1827
2026-08-15 00:17:58 FLAPS 62% 175kt, ALT 1826ft 175 1826
2026-08-15 00:17:59 FLAPS 37% 175kt, ALT 1826ft 175 1826
2026-08-15 00:17:59 FLAPS 62% 175kt, ALT 1825ft 175 1825
2026-08-15 00:17:59 FLAPS 37% 175kt, ALT 1825ft 175 1825
2026-08-15 00:17:59 FLAPS 62% 175kt, ALT 1824ft 175 1824
2026-08-15 00:17:59 FLAPS 37% 175kt, ALT 1824ft 175 1824
2026-08-15 00:18:00 FLAPS 75% 175kt, ALT 1822ft 175 1822
2026-08-15 00:18:00 FLAPS 37% 175kt, ALT 1821ft 175 1821
2026-08-15 00:18:03 FLAPS 50% 175kt, ALT 1806ft 175 1806
2026-08-15 00:18:04 Gear DOWN, IAS 174kt, GS 181kt, ALT 1789ft AGL 174 1796
2026-08-15 00:18:06 FLAPS 75% 175kt, ALT 1784ft 175 1784
2026-08-15 00:18:06 FLAPS 50% 174kt, ALT 1779ft 174 1779
2026-08-15 00:18:07 FLAPS 62% 174kt, ALT 1776ft 174 1776
2026-08-15 00:18:09 FLAPS 75% 174kt, ALT 1745ft 174 1745
2026-08-15 00:19:02 FLAPS 100% 143kt, ALT 1487ft 143 1487
2026-08-15 00:19:02 FLAPS 75% 143kt, ALT 1486ft 143 1486
2026-08-15 00:19:05 FLAPS 87% 143kt, ALT 1470ft 143 1470
2026-08-15 00:19:10 FLAPS 100% 141kt, ALT 1465ft 141 1465
2026-08-15 00:22:50 Gear UP, IAS 136kt, GS 142kt, ALT 98ft AGL 136 213
2026-08-15 00:22:50 Gear DOWN, IAS 137kt, GS 142kt, ALT 101ft AGL 137 217
2026-08-15 00:22:52 Gear UP, IAS 140kt, GS 145kt, ALT 132ft AGL 140 249
2026-08-15 00:23:02 FLAPS 62% 149kt, ALT 707ft 149 707
2026-08-15 00:23:03 FLAPS 50% 149kt, ALT 715ft 149 715
2026-08-15 00:23:03 FLAPS 37% 149kt, ALT 720ft 149 720
2026-08-15 00:23:03 FLAPS 100% 149kt, ALT 730ft 149 730
2026-08-15 00:23:03 FLAPS 37% 149kt, ALT 735ft 149 735
2026-08-15 00:23:03 FLAPS 100% 148kt, ALT 746ft 148 746
2026-08-15 00:23:07 FLAPS 87% 150kt, ALT 966ft 150 966
2026-08-15 00:23:12 FLAPS 75% 156kt, ALT 1184ft 156 1184
2026-08-15 00:23:16 FLAPS 62% 165kt, ALT 1313ft 165 1313
2026-08-15 00:23:18 FLAPS 50% 171kt, ALT 1357ft 171 1357
2026-08-15 00:23:21 FLAPS 37% 179kt, ALT 1382ft 179 1382
2026-08-15 00:23:21 FLAPS 50% 179kt, ALT 1383ft 179 1383
2026-08-15 00:23:22 FLAPS 37% 183kt, ALT 1394ft 183 1394
2026-08-15 00:25:12 FLAPS 50% 166kt, ALT 1580ft 166 1580
2026-08-15 00:25:12 FLAPS 62% 165kt, ALT 1579ft 165 1579
2026-08-15 00:25:12 FLAPS 75% 165kt, ALT 1579ft 165 1579
2026-08-15 00:25:12 FLAPS 37% 165kt, ALT 1578ft 165 1578
2026-08-15 00:25:14 Gear DOWN, IAS 164kt, GS 171kt, ALT 1556ft AGL 164 1571
2026-08-15 00:25:14 Gear UP, IAS 164kt, GS 171kt, ALT 1555ft AGL 164 1571
2026-08-15 00:25:17 FLAPS 50% 163kt, ALT 1558ft 163 1558
2026-08-15 00:25:21 FLAPS 62% 161kt, ALT 1518ft 161 1518
2026-08-15 00:25:23 FLAPS 75% 161kt, ALT 1489ft 161 1489
2026-08-15 00:25:23 Gear DOWN, IAS 161kt, GS 167kt, ALT 1471ft AGL 161 1489
2026-08-15 00:25:49 FLAPS 87% 145kt, ALT 1237ft 145 1237
2026-08-15 00:25:54 FLAPS 100% 143kt, ALT 1224ft 143 1224
2026-08-15 00:29:16 FLAPS 87% 119kt, ALT 128ft 119 128
2026-08-15 00:29:17 FLAPS 100% 119kt, ALT 128ft 119 128
2026-08-15 00:29:17 FLAPS 50% 119kt, ALT 128ft 119 128
2026-08-15 00:29:17 FLAPS 100% 119kt, ALT 128ft 119 128
2026-08-15 00:29:18 FLAPS 50% 119kt, ALT 130ft 119 130
2026-08-15 00:29:18 FLAPS 100% 119kt, ALT 130ft 119 130
2026-08-15 00:29:19 Gear UP, IAS 121kt, GS 128kt, ALT 25ft AGL 121 134
2026-08-15 00:29:19 Gear DOWN, IAS 122kt, GS 129kt, ALT 26ft AGL 122 136
2026-08-15 00:29:20 Gear UP, IAS 127kt, GS 133kt, ALT 38ft AGL 127 150
2026-08-15 00:29:21 FLAPS 87% 130kt, ALT 165ft 130 165
2026-08-15 00:29:26 FLAPS 75% 142kt, ALT 266ft 142 266
2026-08-15 00:29:30 FLAPS 62% 154kt, ALT 340ft 154 340
2026-08-15 00:29:32 FLAPS 50% 163kt, ALT 383ft 163 383
2026-08-15 00:29:50 FLAPS 62% 186kt, ALT 905ft 186 905
2026-08-15 00:29:50 FLAPS 50% 185kt, ALT 913ft 185 913
2026-08-15 00:29:52 FLAPS 62% 184kt, ALT 957ft 184 957
2026-08-15 00:31:28 Gear DOWN, IAS 174kt, GS 181kt, ALT 1665ft AGL 174 1684
2026-08-15 00:31:28 Gear UP, IAS 175kt, GS 181kt, ALT 1664ft AGL 175 1682
2026-08-15 00:31:34 FLAPS 87% 171kt, ALT 1684ft 171 1684
2026-08-15 00:31:34 FLAPS 100% 172kt, ALT 1684ft 172 1684
2026-08-15 00:31:34 FLAPS 62% 172kt, ALT 1684ft 172 1684
2026-08-15 00:31:35 FLAPS 100% 170kt, ALT 1686ft 170 1686
2026-08-15 00:31:35 FLAPS 62% 170kt, ALT 1686ft 170 1686
2026-08-15 00:31:36 FLAPS 75% 169kt, ALT 1689ft 169 1689
2026-08-15 00:31:37 Gear DOWN, IAS 169kt, GS 174kt, ALT 1674ft AGL 169 1688
2026-08-15 00:31:40 FLAPS 87% 164kt, ALT 1688ft 164 1688
2026-08-15 00:31:47 FLAPS 100% 154kt, ALT 1756ft 154 1756
2026-08-15 00:35:27 Aircraft taxiing to apron 21 122
2026-08-15 00:36:10 FLAPS 87% 0 125
2026-08-15 00:36:11 FLAPS 0% 0 125
2026-08-15 00:36:11 FLAPS 100% 0 125
2026-08-15 00:36:17 FLAPS 87% 0 125
2026-08-15 00:36:22 FLAPS 75% 0 125
2026-08-15 00:36:26 FLAPS 62% 0 125
2026-08-15 00:36:28 FLAPS 50% 0 125
2026-08-15 00:36:32 FLAPS 37% 0 125
2026-08-15 00:36:36 FLAPS 25% 0 125
2026-08-15 00:36:40 FLAPS 12% 0 125
2026-08-15 00:36:48 FLAPS 0% 1 125
2026-08-15 00:37:34 Landing Lights OFF 6 124
2026-08-15 00:37:38 Navigation Lights OFF 5 126
2026-08-15 00:37:38 Beacon Lights OFF 5 126
2026-08-15 00:37:38 Strobe Lights OFF 5 126
2026-08-15 00:37:39 Navigation Lights ON 5 126
2026-08-15 00:37:40 Beacon Lights ON 5 126
2026-08-15 00:39:08 Taxi Lights OFF 3 133
2026-08-15 00:40:24 Beacon Lights OFF 7 132
2026-08-15 00:41:35 Engine 2 shutdown 7 132
2026-08-15 00:41:35 Engine 1 shutdown 7 132
2026-08-15 00:43:10 Aircraft at gate/stand, ground services are moving into position, disembarkation has begun. Remaining FOB 8333kg FLYacars v1.3.5 4 132
viserfly

ACARS DATA

DATE IAS GS ALTITUDE FUEL CONSUMED OAT FLIGHT STATUS
2026-08-14 23:41:46 0 0 123 0 22 BOARDING
2026-08-14 23:42:15 0 0 123 0 22 BOARDING
2026-08-14 23:42:46 0 0 123 0 22 BOARDING
2026-08-14 23:43:16 0 0 123 0 22 BOARDING
2026-08-14 23:43:46 0 0 123 0 22 BOARDING
2026-08-14 23:44:16 0 0 123 0 22 BOARDING
2026-08-14 23:44:46 0 0 123 0 22 BOARDING
2026-08-14 23:45:15 0 0 123 0 22 BOARDING
2026-08-14 23:45:46 0 0 123 0 22 BOARDING
2026-08-14 23:46:16 0 0 123 0 22 BOARDING
2026-08-14 23:46:45 0 0 123 0 22 BOARDING
2026-08-14 23:47:16 0 0 123 0 22 BOARDING
2026-08-14 23:47:46 0 0 123 0 22 BOARDING
2026-08-14 23:48:16 0 0 123 1 22 BOARDING
2026-08-14 23:48:46 0 0 123 1 22 BOARDING
2026-08-14 23:49:16 0 0 123 2 22 BOARDING
2026-08-14 23:49:46 0 0 123 3 22 BOARDING
2026-08-14 23:50:16 0 0 123 3 22 BOARDING
2026-08-14 23:50:46 0 0 123 4 22 BOARDING
2026-08-14 23:51:15 0 0 123 6 22 BOARDING
2026-08-14 23:51:45 0 0 123 10 22 BOARDING
2026-08-14 23:52:16 0 0 123 14 22 BOARDING
2026-08-14 23:52:46 0 0 123 20 22 BOARDING
2026-08-14 23:53:15 0 0 123 26 22 BOARDING
2026-08-14 23:53:46 0 0 123 31 22 BOARDING
2026-08-14 23:54:16 0 1 123 40 22 BOARDING
2026-08-14 23:54:46 3 4 124 47 23 PUSHBACK
2026-08-14 23:55:16 8 10 123 57 23 TAXI TO RUNWAY
2026-08-14 23:55:45 12 13 120 62 23 TAXI TO RUNWAY
2026-08-14 23:56:16 16 17 116 68 23 TAXI TO RUNWAY
2026-08-14 23:56:46 15 15 113 74 22 TAXI TO RUNWAY
2026-08-14 23:57:16 1 1 111 80 22 TAXI TO RUNWAY
2026-08-14 23:57:46 4 5 111 86 22 TAXI TO RUNWAY
2026-08-14 23:58:16 0 2 112 92 22 TAXI TO RUNWAY
2026-08-14 23:58:46 36 38 114 117 22 TAXI TO RUNWAY
2026-08-14 23:59:15 166 168 405 215 22 TAKEOFF
2026-08-14 23:59:45 184 192 2086 316 15 INITIAL CLIMB
2026-08-15 00:00:15 197 210 3319 391 12 CLIMB
2026-08-15 00:00:46 228 244 3890 455 11 CLIMB
2026-08-15 00:01:16 216 234 4305 484 10 ENROUTE
2026-08-15 00:01:46 210 227 4340 497 10 ENROUTE
2026-08-15 00:02:16 208 226 4353 512 10 ENROUTE
2026-08-15 00:02:46 208 226 4345 527 10 ENROUTE
2026-08-15 00:03:16 207 224 4347 542 10 ENROUTE
2026-08-15 00:03:46 208 225 4341 557 10 ENROUTE
2026-08-15 00:04:16 212 229 4280 573 10 DESCENT
2026-08-15 00:04:46 229 244 3468 582 11 DESCENT
2026-08-15 00:05:15 234 244 2619 589 13 DESCENT
2026-08-15 00:05:46 232 238 1887 596 14 APPROACH
2026-08-15 00:06:16 201 206 1814 604 14 APPROACH
2026-08-15 00:06:46 188 193 1826 618 14 APPROACH
2026-08-15 00:07:16 190 195 1827 640 14 APPROACH
2026-08-15 00:07:46 180 186 1821 655 14 APPROACH
2026-08-15 00:08:16 183 195 1837 682 14 APPROACH
2026-08-15 00:08:46 173 182 1857 704 14 APPROACH
2026-08-15 00:09:16 172 183 1858 725 14 APPROACH
2026-08-15 00:09:46 168 176 1847 744 14 APPROACH
2026-08-15 00:10:16 171 180 1837 766 14 APPROACH
2026-08-15 00:10:46 168 179 1823 787 14 APPROACH
2026-08-15 00:11:16 171 181 1834 812 15 APPROACH
2026-08-15 00:11:46 172 181 1840 836 15 APPROACH
2026-08-15 00:12:16 174 181 1823 859 15 APPROACH
2026-08-15 00:12:46 170 179 1825 881 15 APPROACH
2026-08-15 00:13:16 169 177 1837 903 15 APPROACH
2026-08-15 00:13:46 169 178 1839 927 15 APPROACH
2026-08-15 00:14:16 170 178 1829 949 15 APPROACH
2026-08-15 00:14:46 171 179 1832 973 15 APPROACH
2026-08-15 00:15:16 171 178 1836 996 15 APPROACH
2026-08-15 00:15:46 171 178 1835 1018 15 APPROACH
2026-08-15 00:16:16 171 179 1838 1041 15 APPROACH
2026-08-15 00:16:46 174 182 1850 1065 15 APPROACH
2026-08-15 00:17:16 174 182 1920 1087 15 APPROACH
2026-08-15 00:17:46 176 184 1831 1108 15 APPROACH
2026-08-15 00:18:16 171 178 1687 1127 16 APPROACH
2026-08-15 00:18:45 145 150 1657 1145 16 APPROACH
2026-08-15 00:19:16 137 142 1514 1172 16 APPROACH
2026-08-15 00:19:46 138 142 1651 1224 16 APPROACH
2026-08-15 00:20:16 149 154 1438 1269 17 APPROACH
2026-08-15 00:20:46 144 151 1173 1305 18 APPROACH
2026-08-15 00:21:16 144 153 1107 1354 18 APPROACH
2026-08-15 00:21:46 150 154 690 1387 21 ON FINAL
2026-08-15 00:22:16 142 147 276 1415 23 ON FINAL
2026-08-15 00:22:46 123 129 141 1444 23 ON FINAL
2026-08-15 00:23:16 163 168 1288 1562 17 ON FINAL
2026-08-15 00:23:46 208 215 1812 1633 15 ON FINAL
2026-08-15 00:24:16 195 200 1959 1656 15 ON FINAL
2026-08-15 00:24:46 189 195 1649 1667 16 APPROACH
2026-08-15 00:25:16 164 170 1566 1674 16 APPROACH
2026-08-15 00:25:46 145 152 1273 1685 17 APPROACH
2026-08-15 00:26:15 127 132 1313 1721 17 APPROACH
2026-08-15 00:26:46 142 148 1634 1793 16 APPROACH
2026-08-15 00:27:16 147 152 1507 1838 17 APPROACH
2026-08-15 00:27:46 155 164 1235 1880 17 APPROACH
2026-08-15 00:28:16 141 148 797 1909 21 ON FINAL
2026-08-15 00:28:45 136 142 328 1934 23 ON FINAL
2026-08-15 00:29:15 120 126 129 1964 24 ON FINAL
2026-08-15 00:29:46 189 194 797 2066 21 ON FINAL
2026-08-15 00:30:16 172 175 1292 2103 17 ON FINAL
2026-08-15 00:30:46 165 169 1804 2149 16 ON FINAL
2026-08-15 00:31:16 167 173 1869 2178 15 ON FINAL
2026-08-15 00:31:45 156 161 1749 2199 16 APPROACH
2026-08-15 00:32:16 147 151 1841 2246 16 APPROACH
2026-08-15 00:32:45 136 141 1526 2272 17 APPROACH
2026-08-15 00:33:16 146 155 1277 2317 17 APPROACH
2026-08-15 00:33:46 146 154 1190 2363 18 APPROACH
2026-08-15 00:34:15 147 151 692 2392 21 ON FINAL
2026-08-15 00:34:45 137 141 284 2418 23 ON FINAL
2026-08-15 00:35:16 63 66 120 2449 24 ON FINAL
2026-08-15 00:35:46 5 6 125 2473 23 ON FINAL
2026-08-15 00:36:16 0 0 125 2480 23 ON FINAL
2026-08-15 00:36:46 0 2 125 2489 23 ON FINAL
2026-08-15 00:37:16 14 12 124 2497 23 ON FINAL
2026-08-15 00:37:46 4 9 128 2504 24 ON FINAL
2026-08-15 00:38:16 1 7 132 2510 24 ON FINAL
2026-08-15 00:38:46 5 10 133 2517 24 ON FINAL
2026-08-15 00:39:16 4 7 133 2524 24 ON FINAL
2026-08-15 00:39:46 11 7 132 2531 24 ON FINAL
2026-08-15 00:40:16 4 0 132 2534 24 ON FINAL
2026-08-15 00:40:46 4 0 132 2535 24 ON FINAL
2026-08-15 00:41:16 6 0 132 2536 24 ON FINAL
2026-08-15 00:41:45 4 0 132 2536 24 ON FINAL
2026-08-15 00:42:16 7 0 132 2537 24 ON FINAL
2026-08-15 00:42:46 3 0 132 2538 24 ON FINAL
  • Join our VA!

    It has been 11 years of great learning, friendships, and stories.

  • Sign up now!